PWSweather.com
Personal Weather Stations
Station Observations
MUNLOCHY
Munlochy Mill, MunlochyGB IV8 8NL

Munlochy MillMunlochyGB IV8 8NL

Lat: 57.548611, Lon: -4.2625966

Elevation: 62.336

Station Type: Oregon Scientific WMR200

http://www.millbankhouse.co.uk

Latest ConditionsUpdated 8:45:01 PM GMT Monday, Sep 23, 2019
Currently Today's Max Today's Min Today's Average
Temperature 52.7°F11.5°C 69.7°F20.9°C 52.2°F11.2°C 59.4°F15.2°C
Dew Point 49.5°F9.7°C 61.6°F16.4°C 49.5°F9.7°C 55.2°F12.9°C
Winds 2.3 mph SSE3.7 kmh SSE 5.8 mph -9.3 kmh - - 2.1 mph 3.4 kmh
Wind Gusts 2.3 mph3.7 kmh 15.0 mph24.1 kmh - -
Humidity 89% 97% 61% 87%
Pressure 29.60 in1002.4 mb 29.62 in1003.0 mb 29.57 in1001.4 mb -
Hour Temp Dew Point Humidity Winds Wind Gusts Pressure Precip Precip Rate Daily Precip Total
08:45 PM 52.7°F11.5°C 49.5°F9.7°C 89% 2.3 mph SSE3.7 kmh SSE 2.3 mph3.7 kmh 29.60 in1002.4 mb - 0.00 in0.0 mm 1.57 in39.9 mm
08:40 PM 52.9°F11.6°C 49.7°F9.8°C 89% 2.3 mph NNE3.7 kmh NNE 3.5 mph5.6 kmh 29.61 in1002.7 mb - 0.00 in0.0 mm 1.57 in39.9 mm
08:35 PM 53.1°F11.7°C 49.9°F9.9°C 89% 2.3 mph NW3.7 kmh NW 2.3 mph3.7 kmh 29.61 in1002.7 mb - 0.00 in0.0 mm 1.57 in39.9 mm
08:30 PM 53.4°F11.9°C 50.0°F10.0°C 88% 3.5 mph NW5.6 kmh NW 2.3 mph3.7 kmh 29.61 in1002.7 mb - 0.00 in0.0 mm 1.57 in39.9 mm
08:25 PM 53.8°F12.1°C 50.0°F10.0°C 87% 3.5 mph S5.6 kmh S 4.6 mph7.4 kmh 29.61 in1002.7 mb - 0.00 in0.0 mm 1.57 in39.9 mm
08:20 PM 53.5°F11.9°C 50.1°F10.1°C 88% 2.3 mph NNE3.7 kmh NNE 5.8 mph9.3 kmh 29.61 in1002.7 mb - 0.00 in0.0 mm 1.57 in39.9 mm
08:15 PM 53.1°F11.7°C 49.9°F9.9°C 89% 2.3 mph NNW3.7 kmh NNW 3.5 mph5.6 kmh 29.61 in1002.7 mb - 0.00 in0.0 mm 1.57 in39.9 mm
08:10 PM 52.5°F11.4°C 50.0°F10.0°C 91% Calm Calm 5.8 mph9.3 kmh 29.61 in1002.7 mb - 0.00 in0.0 mm 1.57 in39.9 mm
08:00 PM 52.2°F11.2°C 49.9°F9.9°C 92% 2.3 mph WNW3.7 kmh WNW 2.3 mph3.7 kmh 29.61 in1002.7 mb - 0.00 in0.0 mm 1.57 in39.9 mm
07:55 PM 52.2°F11.2°C 49.9°F9.9°C 92% 2.3 mph WSW3.7 kmh WSW 2.3 mph3.7 kmh 29.61 in1002.7 mb - 0.00 in0.0 mm 1.57 in39.9 mm
07:50 PM 52.3°F11.3°C 49.8°F9.9°C 91% Calm Calm 2.3 mph3.7 kmh 29.62 in1003.0 mb - 0.00 in0.0 mm 1.57 in39.9 mm
07:45 PM 52.5°F11.4°C 50.0°F10.0°C 91% Calm Calm 2.3 mph3.7 kmh 29.62 in1003.0 mb - 0.00 in0.0 mm 1.57 in39.9 mm
07:40 PM 52.5°F11.4°C 50.0°F10.0°C 91% 2.3 mph NNW3.7 kmh NNW 2.3 mph3.7 kmh 29.61 in1002.7 mb - 0.00 in0.0 mm 1.57 in39.9 mm
07:35 PM 52.8°F11.6°C 50.2°F10.1°C 91% 2.3 mph N3.7 kmh N 2.3 mph3.7 kmh 29.61 in1002.7 mb - 0.00 in0.0 mm 1.57 in39.9 mm
07:30 PM 52.9°F11.6°C 50.0°F10.0°C 90% Calm Calm 2.3 mph3.7 kmh 29.61 in1002.7 mb - 0.00 in0.0 mm 1.57 in39.9 mm
07:25 PM 53.0°F11.7°C 50.2°F10.1°C 90% Calm Calm 2.3 mph3.7 kmh 29.61 in1002.7 mb - 0.00 in0.0 mm 1.57 in39.9 mm
07:20 PM 53.1°F11.7°C 50.2°F10.1°C 90% Calm Calm 1.2 mph1.9 kmh 29.61 in1002.7 mb - 0.00 in0.0 mm 1.57 in39.9 mm
07:15 PM 53.2°F11.8°C 50.4°F10.2°C 90% Calm Calm 2.3 mph3.7 kmh 29.61 in1002.7 mb - 0.00 in0.0 mm 1.57 in39.9 mm
07:10 PM 53.4°F11.9°C 50.6°F10.3°C 90% Calm Calm 2.3 mph3.7 kmh 29.61 in1002.7 mb - 0.00 in0.0 mm 1.57 in39.9 mm
07:00 PM 54.0°F12.2°C 50.8°F10.4°C 89% 1.2 mph NW1.9 kmh NW -- 29.61 in1002.7 mb - 0.00 in0.0 mm 1.57 in39.9 mm
06:55 PM 54.2°F12.3°C 50.7°F10.4°C 88% 1.2 mph NW1.9 kmh NW 2.3 mph3.7 kmh 29.61 in1002.7 mb - 0.00 in0.0 mm 1.57 in39.9 mm
06:50 PM 54.7°F12.6°C 51.2°F10.7°C 88% 1.2 mph NW1.9 kmh NW 2.3 mph3.7 kmh 29.61 in1002.7 mb - 0.00 in0.0 mm 1.57 in39.9 mm
06:45 PM 55.0°F12.8°C 51.2°F10.7°C 87% 1.2 mph N1.9 kmh N 2.3 mph3.7 kmh 29.61 in1002.7 mb - 0.00 in0.0 mm 1.57 in39.9 mm
06:40 PM 55.2°F12.9°C 51.1°F10.6°C 86% 2.3 mph NW3.7 kmh NW 2.3 mph3.7 kmh 29.61 in1002.7 mb - 0.00 in0.0 mm 1.57 in39.9 mm
06:35 PM 55.6°F13.1°C 51.5°F10.8°C 86% 2.3 mph NW3.7 kmh NW 2.3 mph3.7 kmh 29.61 in1002.7 mb - 0.00 in0.0 mm 1.57 in39.9 mm
06:30 PM 56.1°F13.4°C 52.0°F11.1°C 86% Calm Calm 3.5 mph5.6 kmh 29.61 in1002.7 mb - 0.00 in0.0 mm 1.57 in39.9 mm
06:25 PM 56.8°F13.8°C 52.1°F11.2°C 84% Calm Calm 2.3 mph3.7 kmh 29.60 in1002.4 mb - 0.00 in0.0 mm 1.57 in39.9 mm
06:20 PM 57.5°F14.2°C 52.0°F11.1°C 82% 1.2 mph NNE1.9 kmh NNE 1.2 mph1.9 kmh 29.60 in1002.4 mb - 0.00 in0.0 mm 1.57 in39.9 mm
06:15 PM 57.9°F14.4°C 52.1°F11.2°C 81% 1.2 mph ENE1.9 kmh ENE 2.3 mph3.7 kmh 29.60 in1002.4 mb - 0.00 in0.0 mm 1.57 in39.9 mm
06:10 PM 58.5°F14.7°C 52.0°F11.1°C 79% 2.3 mph SSW3.7 kmh SSW -- 29.60 in1002.4 mb - 0.00 in0.0 mm 1.57 in39.9 mm
06:00 PM 59.0°F15.0°C 51.1°F10.6°C 75% 2.3 mph E3.7 kmh E 4.6 mph7.4 kmh 29.60 in1002.4 mb - 0.00 in0.0 mm 1.57 in39.9 mm
05:55 PM 59.4°F15.2°C 51.1°F10.6°C 74% 2.3 mph ENE3.7 kmh ENE 2.3 mph3.7 kmh 29.60 in1002.4 mb - 0.00 in0.0 mm 1.57 in39.9 mm
05:50 PM 59.5°F15.3°C 51.2°F10.7°C 74% 2.3 mph E3.7 kmh E 5.8 mph9.3 kmh 29.60 in1002.4 mb - 0.00 in0.0 mm 1.57 in39.9 mm
05:45 PM 59.7°F15.4°C 51.0°F10.6°C 73% 2.3 mph SE3.7 kmh SE 2.3 mph3.7 kmh 29.60 in1002.4 mb - 0.00 in0.0 mm 1.57 in39.9 mm
05:40 PM 60.0°F15.6°C 51.4°F10.8°C 73% 2.3 mph ESE3.7 kmh ESE 8.1 mph13.0 kmh 29.60 in1002.4 mb - 0.00 in0.0 mm 1.57 in39.9 mm
05:35 PM 60.1°F15.6°C 51.4°F10.8°C 73% 2.3 mph SSE3.7 kmh SSE 5.8 mph9.3 kmh 29.60 in1002.4 mb - 0.00 in0.0 mm 1.57 in39.9 mm
05:30 PM 60.3°F15.7°C 52.3°F11.3°C 75% 2.3 mph SSE3.7 kmh SSE 3.5 mph5.6 kmh 29.60 in1002.4 mb - 0.00 in0.0 mm 1.57 in39.9 mm
05:25 PM 60.4°F15.8°C 52.5°F11.4°C 75% 2.3 mph S3.7 kmh S 4.6 mph7.4 kmh 29.60 in1002.4 mb - 0.00 in0.0 mm 1.57 in39.9 mm
05:20 PM 60.8°F16.0°C 53.2°F11.8°C 76% 2.3 mph S3.7 kmh S 5.8 mph9.3 kmh 29.61 in1002.7 mb - 0.00 in0.0 mm 1.57 in39.9 mm
05:15 PM 61.2°F16.2°C 53.2°F11.8°C 75% 2.3 mph SSE3.7 kmh SSE 4.6 mph7.4 kmh 29.61 in1002.7 mb - 0.00 in0.0 mm 1.57 in39.9 mm
05:10 PM 61.3°F16.3°C 53.0°F11.7°C 74% 2.3 mph SSE3.7 kmh SSE 5.8 mph9.3 kmh 29.61 in1002.7 mb - 0.00 in0.0 mm 1.57 in39.9 mm
05:00 PM 61.7°F16.5°C 53.7°F12.1°C 75% 2.3 mph S3.7 kmh S 4.6 mph7.4 kmh 29.61 in1002.7 mb - 0.00 in0.0 mm 1.57 in39.9 mm
04:55 PM 61.9°F16.6°C 53.9°F12.2°C 75% 2.3 mph S3.7 kmh S 3.5 mph5.6 kmh 29.60 in1002.4 mb - 0.00 in0.0 mm 1.57 in39.9 mm
04:50 PM 62.1°F16.7°C 54.0°F12.2°C 75% 3.5 mph WSW5.6 kmh WSW 5.8 mph9.3 kmh 29.60 in1002.4 mb - 0.00 in0.0 mm 1.57 in39.9 mm
04:45 PM 62.2°F16.8°C 54.2°F12.3°C 75% 3.5 mph SE5.6 kmh SE 4.6 mph7.4 kmh 29.60 in1002.4 mb - 0.00 in0.0 mm 1.57 in39.9 mm
04:40 PM 62.5°F16.9°C 54.1°F12.3°C 74% 3.5 mph W5.6 kmh W 6.9 mph11.1 kmh 29.60 in1002.4 mb - 0.00 in0.0 mm 1.57 in39.9 mm
04:35 PM 62.8°F17.1°C 54.4°F12.4°C 74% 3.5 mph SW5.6 kmh SW 6.9 mph11.1 kmh 29.60 in1002.4 mb - 0.00 in0.0 mm 1.57 in39.9 mm
04:30 PM 63.1°F17.3°C 54.7°F12.6°C 74% 3.5 mph SSE5.6 kmh SSE 3.5 mph5.6 kmh 29.60 in1002.4 mb - 0.00 in0.0 mm 1.57 in39.9 mm
04:25 PM 63.6°F17.6°C 54.8°F12.7°C 73% 3.5 mph SSW5.6 kmh SSW 6.9 mph11.1 kmh 29.60 in1002.4 mb - 0.00 in0.0 mm 1.57 in39.9 mm
04:20 PM 63.9°F17.7°C 55.4°F13.0°C 74% 5.8 mph SW9.3 kmh SW 4.6 mph7.4 kmh 29.60 in1002.4 mb - 0.00 in0.0 mm 1.57 in39.9 mm
04:15 PM 64.0°F17.8°C 54.8°F12.7°C 72% 5.8 mph SSW9.3 kmh SSW 8.1 mph13.0 kmh 29.60 in1002.4 mb - 0.00 in0.0 mm 1.57 in39.9 mm
04:10 PM 64.2°F17.9°C 54.2°F12.3°C 70% 3.5 mph SSE5.6 kmh SSE 8.1 mph13.0 kmh 29.60 in1002.4 mb - 0.00 in0.0 mm 1.57 in39.9 mm
04:00 PM 65.1°F18.4°C 55.1°F12.8°C 70% 4.6 mph S7.4 kmh S 6.9 mph11.1 kmh 29.59 in1002.0 mb - 0.00 in0.0 mm 1.57 in39.9 mm
03:55 PM 65.3°F18.5°C 54.8°F12.7°C 69% 4.6 mph SSE7.4 kmh SSE 4.6 mph7.4 kmh 29.59 in1002.0 mb - 0.00 in0.0 mm 1.57 in39.9 mm
03:50 PM 65.5°F18.6°C 54.6°F12.6°C 68% 4.6 mph S7.4 kmh S 9.2 mph14.8 kmh 29.59 in1002.0 mb - 0.00 in0.0 mm 1.57 in39.9 mm
03:45 PM 65.5°F18.6°C 55.0°F12.8°C 69% 4.6 mph SE7.4 kmh SE 5.8 mph9.3 kmh 29.59 in1002.0 mb - 0.00 in0.0 mm 1.57 in39.9 mm
03:40 PM 65.8°F18.8°C 55.0°F12.8°C 68% 4.6 mph S7.4 kmh S 6.9 mph11.1 kmh 29.59 in1002.0 mb - 0.00 in0.0 mm 1.57 in39.9 mm
03:35 PM 66.0°F18.9°C 55.2°F12.9°C 68% 4.6 mph S7.4 kmh S 4.6 mph7.4 kmh 29.59 in1002.0 mb - 0.00 in0.0 mm 1.57 in39.9 mm
03:30 PM 66.0°F18.9°C 55.2°F12.9°C 68% 5.8 mph SSE9.3 kmh SSE 8.1 mph13.0 kmh 29.59 in1002.0 mb - 0.00 in0.0 mm 1.57 in39.9 mm
03:25 PM 66.2°F19.0°C 54.9°F12.7°C 67% 5.8 mph SSE9.3 kmh SSE 9.2 mph14.8 kmh 29.59 in1002.0 mb - 0.00 in0.0 mm 1.57 in39.9 mm
03:20 PM 66.6°F19.2°C 54.9°F12.7°C 66% 5.8 mph S9.3 kmh S 8.1 mph13.0 kmh 29.59 in1002.0 mb - 0.00 in0.0 mm 1.57 in39.9 mm
03:15 PM 67.5°F19.7°C 56.1°F13.4°C 67% 5.8 mph SE9.3 kmh SE 5.8 mph9.3 kmh 29.59 in1002.0 mb - 0.00 in0.0 mm 1.57 in39.9 mm
03:10 PM 67.8°F19.9°C 55.6°F13.1°C 65% 4.6 mph SE7.4 kmh SE 9.2 mph14.8 kmh 29.59 in1002.0 mb - 0.00 in0.0 mm 1.57 in39.9 mm
03:00 PM 69.2°F20.7°C 56.0°F13.3°C 63% 4.6 mph ESE7.4 kmh ESE 6.9 mph11.1 kmh 29.59 in1002.0 mb - 0.00 in0.0 mm 1.57 in39.9 mm
02:55 PM 69.3°F20.7°C 56.2°F13.4°C 63% 4.6 mph SE7.4 kmh SE 8.1 mph13.0 kmh 29.59 in1002.0 mb - 0.00 in0.0 mm 1.57 in39.9 mm
02:50 PM 68.9°F20.5°C 54.9°F12.7°C 61% 4.6 mph SSW7.4 kmh SSW 8.1 mph13.0 kmh 29.59 in1002.0 mb - 0.00 in0.0 mm 1.57 in39.9 mm
02:45 PM 68.7°F20.4°C 56.0°F13.3°C 64% 4.6 mph SSW7.4 kmh SSW 4.6 mph7.4 kmh 29.59 in1002.0 mb - 0.00 in0.0 mm 1.57 in39.9 mm
02:40 PM 68.5°F20.3°C 55.9°F13.3°C 64% 4.6 mph SE7.4 kmh SE 9.2 mph14.8 kmh 29.59 in1002.0 mb - 0.00 in0.0 mm 1.57 in39.9 mm
02:35 PM 68.5°F20.3°C 55.0°F12.8°C 62% 4.6 mph SSE7.4 kmh SSE 8.1 mph13.0 kmh 29.59 in1002.0 mb - 0.00 in0.0 mm 1.57 in39.9 mm
02:30 PM 69.1°F20.6°C 55.1°F12.8°C 61% 4.6 mph S7.4 kmh S 5.8 mph9.3 kmh 29.59 in1002.0 mb - 0.00 in0.0 mm 1.57 in39.9 mm
02:25 PM 69.1°F20.6°C 55.5°F13.1°C 62% 4.6 mph SSW7.4 kmh SSW 6.9 mph11.1 kmh 29.59 in1002.0 mb - 0.00 in0.0 mm 1.57 in39.9 mm
02:20 PM 68.8°F20.4°C 54.8°F12.7°C 61% 4.6 mph SE7.4 kmh SE 15.0 mph24.1 kmh 29.59 in1002.0 mb - 0.00 in0.0 mm 1.57 in39.9 mm
02:15 PM 68.6°F20.3°C 55.1°F12.8°C 62% 4.6 mph SSE7.4 kmh SSE 12.7 mph20.4 kmh 29.59 in1002.0 mb - 0.00 in0.0 mm 1.57 in39.9 mm
02:10 PM 68.4°F20.2°C 54.4°F12.4°C 61% 5.8 mph SE9.3 kmh SE 5.8 mph9.3 kmh 29.59 in1002.0 mb - 0.00 in0.0 mm 1.57 in39.9 mm
02:00 PM 68.4°F20.2°C 54.4°F12.4°C 61% 4.6 mph SSE7.4 kmh SSE 10.4 mph16.7 kmh 29.59 in1002.0 mb - 0.00 in0.0 mm 1.57 in39.9 mm
01:55 PM 68.7°F20.4°C 56.0°F13.3°C 64% 4.6 mph SE7.4 kmh SE 12.7 mph20.4 kmh 29.60 in1002.4 mb - 0.00 in0.0 mm 1.57 in39.9 mm
01:50 PM 68.7°F20.4°C 56.0°F13.3°C 64% 4.6 mph SE7.4 kmh SE 9.2 mph14.8 kmh 29.60 in1002.4 mb - 0.00 in0.0 mm 1.57 in39.9 mm
01:45 PM 68.7°F20.4°C 55.2°F12.9°C 62% 4.6 mph SSW7.4 kmh SSW 4.6 mph7.4 kmh 29.60 in1002.4 mb - 0.00 in0.0 mm 1.57 in39.9 mm
01:40 PM 69.3°F20.7°C 56.1°F13.4°C 63% 4.6 mph W7.4 kmh W 6.9 mph11.1 kmh 29.59 in1002.0 mb - 0.00 in0.0 mm 1.57 in39.9 mm
01:35 PM 69.3°F20.7°C 56.1°F13.4°C 63% 4.6 mph ESE7.4 kmh ESE 8.1 mph13.0 kmh 29.59 in1002.0 mb - 0.00 in0.0 mm 1.57 in39.9 mm
01:30 PM 69.3°F20.7°C 55.7°F13.2°C 62% 3.5 mph SSE5.6 kmh SSE 8.1 mph13.0 kmh 29.59 in1002.0 mb - 0.00 in0.0 mm 1.57 in39.9 mm
01:25 PM 69.7°F20.9°C 56.6°F13.7°C 63% 3.5 mph SE5.6 kmh SE 8.1 mph13.0 kmh 29.59 in1002.0 mb - 0.00 in0.0 mm 1.57 in39.9 mm
01:20 PM 69.2°F20.7°C 57.4°F14.1°C 66% 4.6 mph S7.4 kmh S 6.9 mph11.1 kmh 29.59 in1002.0 mb - 0.00 in0.0 mm 1.57 in39.9 mm
01:15 PM 68.9°F20.5°C 57.5°F14.2°C 67% 4.6 mph SSW7.4 kmh SSW 5.8 mph9.3 kmh 29.59 in1002.0 mb - 0.00 in0.0 mm 1.57 in39.9 mm
01:10 PM 68.7°F20.4°C 56.9°F13.8°C 66% 5.8 mph SSE9.3 kmh SSE 6.9 mph11.1 kmh 29.59 in1002.0 mb - 0.00 in0.0 mm 1.57 in39.9 mm
01:00 PM 68.2°F20.1°C 58.4°F14.7°C 71% 4.6 mph SE7.4 kmh SE 6.9 mph11.1 kmh 29.59 in1002.0 mb - 0.00 in0.0 mm 1.57 in39.9 mm
12:55 PM 67.6°F19.8°C 57.5°F14.2°C 70% 4.6 mph SE7.4 kmh SE 10.4 mph16.7 kmh 29.59 in1002.0 mb - 0.00 in0.0 mm 1.57 in39.9 mm
12:50 PM 67.1°F19.5°C 58.6°F14.8°C 74% 4.6 mph SE7.4 kmh SE 6.9 mph11.1 kmh 29.59 in1002.0 mb - 0.00 in0.0 mm 1.57 in39.9 mm
12:45 PM 66.0°F18.9°C 57.1°F13.9°C 73% 4.6 mph SSW7.4 kmh SSW 9.2 mph14.8 kmh 29.59 in1002.0 mb - 0.00 in0.0 mm 1.57 in39.9 mm
12:40 PM 65.8°F18.8°C 59.1°F15.1°C 79% 4.6 mph S7.4 kmh S 4.6 mph7.4 kmh 29.60 in1002.4 mb - 0.00 in0.0 mm 1.57 in39.9 mm
12:35 PM 65.8°F18.8°C 61.2°F16.2°C 85% 4.6 mph ESE7.4 kmh ESE 6.9 mph11.1 kmh 29.60 in1002.4 mb - 0.00 in0.0 mm 1.57 in39.9 mm
12:30 PM 65.6°F18.7°C 61.6°F16.4°C 87% 4.6 mph E7.4 kmh E 5.8 mph9.3 kmh 29.60 in1002.4 mb - 0.00 in0.0 mm 1.57 in39.9 mm
12:25 PM 64.6°F18.1°C 60.9°F16.1°C 88% 4.6 mph SE7.4 kmh SE 6.9 mph11.1 kmh 29.60 in1002.4 mb - 0.00 in0.0 mm 1.57 in39.9 mm
12:20 PM 63.7°F17.6°C 60.8°F16.0°C 90% 4.6 mph SE7.4 kmh SE 6.9 mph11.1 kmh 29.60 in1002.4 mb - 0.00 in0.0 mm 1.57 in39.9 mm
12:15 PM 63.4°F17.4°C 60.5°F15.8°C 90% 4.6 mph E7.4 kmh E 5.8 mph9.3 kmh 29.60 in1002.4 mb - 0.00 in0.0 mm 1.57 in39.9 mm
12:10 PM 63.9°F17.7°C 60.6°F15.9°C 89% 4.6 mph SE7.4 kmh SE 6.9 mph11.1 kmh 29.59 in1002.0 mb - 0.00 in0.0 mm 1.57 in39.9 mm
12:00 PM 63.3°F17.4°C 60.0°F15.6°C 89% 4.6 mph ESE7.4 kmh ESE 4.6 mph7.4 kmh 29.59 in1002.0 mb - 0.00 in0.0 mm 1.57 in39.9 mm
11:55 AM 64.0°F17.8°C 60.3°F15.7°C 88% 4.6 mph E7.4 kmh E 6.9 mph11.1 kmh 29.59 in1002.0 mb - 0.00 in0.0 mm 1.57 in39.9 mm
11:50 AM 64.8°F18.2°C 61.1°F16.2°C 88% 4.6 mph ESE7.4 kmh ESE 5.8 mph9.3 kmh 29.59 in1002.0 mb - 0.00 in0.0 mm 1.57 in39.9 mm
11:45 AM 64.6°F18.1°C 61.3°F16.3°C 89% 4.6 mph E7.4 kmh E 5.8 mph9.3 kmh 29.59 in1002.0 mb - 0.00 in0.0 mm 1.57 in39.9 mm
11:40 AM 64.5°F18.1°C 60.9°F16.1°C 88% 4.6 mph ESE7.4 kmh ESE 5.8 mph9.3 kmh 29.59 in1002.0 mb - 0.00 in0.0 mm 1.57 in39.9 mm
11:35 AM 64.4°F18.0°C 61.0°F16.1°C 89% 4.6 mph E7.4 kmh E 6.9 mph11.1 kmh 29.59 in1002.0 mb - 0.00 in0.0 mm 1.57 in39.9 mm
11:30 AM 64.5°F18.1°C 61.2°F16.2°C 89% 2.3 mph ESE3.7 kmh ESE 5.8 mph9.3 kmh 29.59 in1002.0 mb - 0.00 in0.0 mm 1.57 in39.9 mm
11:25 AM 64.9°F18.3°C 60.9°F16.1°C 87% 2.3 mph ESE3.7 kmh ESE 6.9 mph11.1 kmh 29.59 in1002.0 mb - 0.00 in0.0 mm 1.57 in39.9 mm
11:20 AM 65.0°F18.3°C 61.4°F16.3°C 88% 1.2 mph NNE1.9 kmh NNE 3.5 mph5.6 kmh 29.60 in1002.4 mb - 0.00 in0.0 mm 1.57 in39.9 mm
11:15 AM 64.6°F18.1°C 60.9°F16.1°C 88% 1.2 mph E1.9 kmh E 2.3 mph3.7 kmh 29.60 in1002.4 mb - 0.00 in0.0 mm 1.57 in39.9 mm
11:10 AM 64.4°F18.0°C 61.1°F16.2°C 89% 1.2 mph ESE1.9 kmh ESE 2.3 mph3.7 kmh 29.59 in1002.0 mb - 0.00 in0.0 mm 1.57 in39.9 mm
11:00 AM 64.0°F17.8°C 60.7°F15.9°C 89% 2.3 mph S3.7 kmh S 2.3 mph3.7 kmh 29.59 in1002.0 mb - 0.00 in0.0 mm 1.57 in39.9 mm
10:55 AM 63.7°F17.6°C 60.4°F15.8°C 89% 2.3 mph ESE3.7 kmh ESE 2.3 mph3.7 kmh 29.59 in1002.0 mb - 0.00 in0.0 mm 1.57 in39.9 mm
10:50 AM 63.5°F17.5°C 60.5°F15.8°C 90% 2.3 mph SE3.7 kmh SE 4.6 mph7.4 kmh 29.59 in1002.0 mb - 0.00 in0.0 mm 1.57 in39.9 mm
10:45 AM 63.0°F17.2°C 60.6°F15.9°C 92% 2.3 mph SE3.7 kmh SE 3.5 mph5.6 kmh 29.59 in1002.0 mb - 0.00 in0.0 mm 1.57 in39.9 mm
10:40 AM 62.4°F16.9°C 60.3°F15.7°C 93% Calm Calm 3.5 mph5.6 kmh 29.59 in1002.0 mb - 0.00 in0.0 mm 1.57 in39.9 mm
10:35 AM 61.6°F16.4°C 59.5°F15.3°C 93% Calm Calm 2.3 mph3.7 kmh 29.59 in1002.0 mb - 0.00 in0.0 mm 1.57 in39.9 mm
10:30 AM 61.1°F16.2°C 59.1°F15.1°C 93% Calm Calm 1.2 mph1.9 kmh 29.59 in1002.0 mb - 0.00 in0.0 mm 1.57 in39.9 mm
10:25 AM 60.6°F15.9°C 58.6°F14.8°C 93% Calm Calm -- 29.60 in1002.4 mb - 0.00 in0.0 mm 1.57 in39.9 mm
10:20 AM 60.4°F15.8°C 58.4°F14.7°C 93% Calm Calm 2.3 mph3.7 kmh 29.60 in1002.4 mb - 0.00 in0.0 mm 1.57 in39.9 mm
10:15 AM 60.3°F15.7°C 58.5°F14.7°C 94% Calm Calm 2.3 mph3.7 kmh 29.60 in1002.4 mb - 0.00 in0.0 mm 1.57 in39.9 mm
10:10 AM 60.1°F15.6°C 58.6°F14.8°C 95% Calm Calm 3.5 mph5.6 kmh 29.60 in1002.4 mb - 0.00 in0.0 mm 1.57 in39.9 mm
10:00 AM 59.4°F15.2°C 57.9°F14.4°C 95% Calm Calm -- 29.60 in1002.4 mb - 0.00 in0.0 mm 1.57 in39.9 mm
09:55 AM 59.2°F15.1°C 57.5°F14.2°C 94% Calm Calm -- 29.60 in1002.4 mb - 0.00 in0.0 mm 1.57 in39.9 mm
09:50 AM 59.0°F15.0°C 57.6°F14.2°C 95% 2.3 mph WNW3.7 kmh WNW 2.3 mph3.7 kmh 29.60 in1002.4 mb - 0.00 in0.0 mm 1.57 in39.9 mm
09:45 AM 58.8°F14.9°C 57.4°F14.1°C 95% 2.3 mph WNW3.7 kmh WNW 1.2 mph1.9 kmh 29.60 in1002.4 mb - 0.00 in0.0 mm 1.57 in39.9 mm
09:40 AM 58.6°F14.8°C 57.5°F14.2°C 96% 2.3 mph W3.7 kmh W 3.5 mph5.6 kmh 29.60 in1002.4 mb - 0.00 in0.0 mm 1.57 in39.9 mm
09:35 AM 58.4°F14.7°C 57.3°F14.1°C 96% 2.3 mph WSW3.7 kmh WSW 1.2 mph1.9 kmh 29.61 in1002.7 mb - 0.00 in0.0 mm 1.57 in39.9 mm
09:30 AM 58.3°F14.6°C 56.9°F13.8°C 95% 1.2 mph NW1.9 kmh NW 2.3 mph3.7 kmh 29.61 in1002.7 mb - 0.00 in0.0 mm 1.57 in39.9 mm
09:25 AM 58.3°F14.6°C 57.1°F13.9°C 96% 1.2 mph W1.9 kmh W 2.3 mph3.7 kmh 29.61 in1002.7 mb - 0.00 in0.0 mm 1.57 in39.9 mm
09:20 AM 58.3°F14.6°C 56.9°F13.8°C 95% Calm Calm 2.3 mph3.7 kmh 29.61 in1002.7 mb - 0.00 in0.0 mm 1.57 in39.9 mm
09:15 AM 58.1°F14.5°C 57.0°F13.9°C 96% Calm Calm 2.3 mph3.7 kmh 29.61 in1002.7 mb - 0.00 in0.0 mm 1.57 in39.9 mm
09:10 AM 57.9°F14.4°C 56.8°F13.8°C 96% Calm Calm -- 29.61 in1002.7 mb - 0.00 in0.0 mm 1.57 in39.9 mm
09:00 AM 57.7°F14.3°C 56.6°F13.7°C 96% 1.2 mph SW1.9 kmh SW 1.2 mph1.9 kmh 29.61 in1002.7 mb - 0.00 in0.0 mm 1.57 in39.9 mm
08:55 AM 57.7°F14.3°C 56.6°F13.7°C 96% 1.2 mph SW1.9 kmh SW 2.3 mph3.7 kmh 29.61 in1002.7 mb - 0.00 in0.0 mm 1.57 in39.9 mm
08:50 AM 57.6°F14.2°C 56.7°F13.7°C 97% 1.2 mph SW1.9 kmh SW 2.3 mph3.7 kmh 29.60 in1002.4 mb - 0.00 in0.0 mm 1.57 in39.9 mm
08:45 AM 57.4°F14.1°C 56.2°F13.4°C 96% 1.2 mph SW1.9 kmh SW 2.3 mph3.7 kmh 29.60 in1002.4 mb - 0.00 in0.0 mm 1.57 in39.9 mm
08:40 AM 57.2°F14.0°C 56.3°F13.5°C 97% Calm Calm 1.2 mph1.9 kmh 29.60 in1002.4 mb - 0.00 in0.0 mm 1.57 in39.9 mm
08:35 AM 57.0°F13.9°C 56.2°F13.4°C 97% Calm Calm 2.3 mph3.7 kmh 29.60 in1002.4 mb - 0.00 in0.0 mm 1.57 in39.9 mm
08:30 AM 57.0°F13.9°C 56.1°F13.4°C 97% Calm Calm 2.3 mph3.7 kmh 29.60 in1002.4 mb - 0.00 in0.0 mm 1.57 in39.9 mm
08:25 AM 56.8°F13.8°C 56.0°F13.3°C 97% Calm Calm -- 29.60 in1002.4 mb - 0.00 in0.0 mm 1.57 in39.9 mm
08:20 AM 56.7°F13.7°C 55.8°F13.2°C 97% 1.2 mph WSW1.9 kmh WSW 1.2 mph1.9 kmh 29.60 in1002.4 mb - 0.00 in0.0 mm 1.57 in39.9 mm
08:15 AM 56.7°F13.7°C 55.8°F13.2°C 97% 1.2 mph W1.9 kmh W 2.3 mph3.7 kmh 29.60 in1002.4 mb - 0.00 in0.0 mm 1.57 in39.9 mm
08:10 AM 56.7°F13.7°C 55.8°F13.2°C 97% Calm Calm 2.3 mph3.7 kmh 29.60 in1002.4 mb - 0.00 in0.0 mm 1.57 in39.9 mm
08:00 AM 56.3°F13.5°C 55.5°F13.1°C 97% Calm Calm -- 29.60 in1002.4 mb - 0.00 in0.0 mm 1.57 in39.9 mm
07:55 AM 56.1°F13.4°C 55.3°F12.9°C 97% Calm Calm -- 29.60 in1002.4 mb - 0.00 in0.0 mm 0.16 in4.1 mm
07:50 AM 55.9°F13.3°C 55.1°F12.8°C 97% Calm Calm -- 29.60 in1002.4 mb - 0.00 in0.0 mm 0.16 in4.1 mm
07:45 AM 55.9°F13.3°C 55.1°F12.8°C 97% Calm Calm -- 29.60 in1002.4 mb - 0.00 in0.0 mm 0.16 in4.1 mm
07:40 AM 55.8°F13.2°C 55.0°F12.8°C 97% Calm Calm -- 29.60 in1002.4 mb - 0.00 in0.0 mm 0.16 in4.1 mm
07:35 AM 55.8°F13.2°C 54.9°F12.7°C 97% Calm Calm -- 29.60 in1002.4 mb - 0.00 in0.0 mm 0.16 in4.1 mm
07:30 AM 55.8°F13.2°C 54.9°F12.7°C 97% Calm Calm -- 29.60 in1002.4 mb - 0.00 in0.0 mm 0.16 in4.1 mm
07:25 AM 55.8°F13.2°C 54.9°F12.7°C 97% Calm Calm -- 29.60 in1002.4 mb - 0.00 in0.0 mm 0.16 in4.1 mm
07:20 AM 55.8°F13.2°C 54.9°F12.7°C 97% Calm Calm -- 29.60 in1002.4 mb - 0.00 in0.0 mm 0.16 in4.1 mm
07:15 AM 55.8°F13.2°C 54.9°F12.7°C 97% Calm Calm -- 29.60 in1002.4 mb - 0.00 in0.0 mm 0.16 in4.1 mm
07:10 AM 55.8°F13.2°C 54.9°F12.7°C 97% Calm Calm -- 29.60 in1002.4 mb - 0.00 in0.0 mm 0.16 in4.1 mm
07:00 AM 55.8°F13.2°C 54.9°F12.7°C 97% Calm Calm -- 29.60 in1002.4 mb - 0.00 in0.0 mm 0.16 in4.1 mm
06:55 AM 55.8°F13.2°C 54.9°F12.7°C 97% Calm Calm -- 29.60 in1002.4 mb - 0.00 in0.0 mm 0.16 in4.1 mm
06:50 AM 55.6°F13.1°C 54.8°F12.7°C 97% Calm Calm -- 29.59 in1002.0 mb - 0.00 in0.0 mm 0.16 in4.1 mm
06:45 AM 55.6°F13.1°C 54.8°F12.7°C 97% Calm Calm -- 29.59 in1002.0 mb - 0.00 in0.0 mm 0.16 in4.1 mm
06:40 AM 55.6°F13.1°C 54.7°F12.6°C 97% Calm Calm -- 29.59 in1002.0 mb - 0.00 in0.0 mm 0.16 in4.1 mm
06:35 AM 55.6°F13.1°C 54.7°F12.6°C 97% Calm Calm -- 29.59 in1002.0 mb - 0.00 in0.0 mm 0.16 in4.1 mm
06:30 AM 55.6°F13.1°C 54.5°F12.5°C 96% Calm Calm -- 29.59 in1002.0 mb - 0.00 in0.0 mm 0.16 in4.1 mm
06:25 AM 55.6°F13.1°C 54.7°F12.6°C 97% Calm Calm -- 29.59 in1002.0 mb - 0.00 in0.0 mm 0.16 in4.1 mm
06:20 AM 55.6°F13.1°C 54.7°F12.6°C 97% 2.3 mph WSW3.7 kmh WSW -- 29.59 in1002.0 mb - 0.01 in0.3 mm 0.16 in4.1 mm
06:15 AM 55.4°F13.0°C 54.3°F12.4°C 96% 2.3 mph NNW3.7 kmh NNW 1.2 mph1.9 kmh 29.59 in1002.0 mb - 0.01 in0.3 mm 0.16 in4.1 mm
06:10 AM 55.4°F13.0°C 54.3°F12.4°C 96% Calm Calm -- 29.59 in1002.0 mb - 0.01 in0.3 mm 0.16 in4.1 mm
06:00 AM 55.4°F13.0°C 54.2°F12.3°C 96% Calm Calm 2.3 mph3.7 kmh 29.59 in1002.0 mb - 0.01 in0.3 mm 0.16 in4.1 mm
05:55 AM 55.2°F12.9°C 54.1°F12.3°C 96% Calm Calm -- 29.59 in1002.0 mb - 0.01 in0.3 mm 0.16 in4.1 mm
05:50 AM 55.2°F12.9°C 54.1°F12.3°C 96% Calm Calm -- 29.58 in1001.7 mb - 0.01 in0.3 mm 0.16 in4.1 mm
05:45 AM 55.3°F12.9°C 54.2°F12.3°C 96% Calm Calm -- 29.58 in1001.7 mb - 0.02 in0.5 mm 0.16 in4.1 mm
05:40 AM 55.4°F13.0°C 54.3°F12.4°C 96% Calm Calm -- 29.58 in1001.7 mb - 0.02 in0.5 mm 0.16 in4.1 mm
05:35 AM 55.6°F13.1°C 54.5°F12.5°C 96% Calm Calm 2.3 mph3.7 kmh 29.57 in1001.4 mb - 0.03 in0.8 mm 0.16 in4.1 mm
05:30 AM 55.6°F13.1°C 54.5°F12.5°C 96% 1.2 mph SSW1.9 kmh SSW 2.3 mph3.7 kmh 29.57 in1001.4 mb - 0.04 in1.0 mm 0.16 in4.1 mm
05:25 AM 55.8°F13.2°C 54.6°F12.6°C 96% 1.2 mph SW1.9 kmh SW -- 29.57 in1001.4 mb - 0.05 in1.3 mm 0.16 in4.1 mm
05:20 AM 55.8°F13.2°C 54.6°F12.6°C 96% 1.2 mph SW1.9 kmh SW 2.3 mph3.7 kmh 29.57 in1001.4 mb - 0.05 in1.3 mm 0.15 in3.8 mm
05:15 AM 55.8°F13.2°C 54.6°F12.6°C 96% 1.2 mph W1.9 kmh W -- 29.57 in1001.4 mb - 0.05 in1.3 mm 0.15 in3.8 mm
05:10 AM 55.8°F13.2°C 54.6°F12.6°C 96% Calm Calm 2.3 mph3.7 kmh 29.58 in1001.7 mb - 0.06 in1.5 mm 0.15 in3.8 mm
05:00 AM 55.8°F13.2°C 54.6°F12.6°C 96% Calm Calm 1.2 mph1.9 kmh 29.59 in1002.0 mb - 0.08 in2.0 mm 0.15 in3.8 mm
04:55 AM 55.8°F13.2°C 54.6°F12.6°C 96% Calm Calm -- 29.59 in1002.0 mb - 0.08 in2.0 mm 0.15 in3.8 mm
04:50 AM 55.8°F13.2°C 54.6°F12.6°C 96% 1.2 mph WNW1.9 kmh WNW -- 29.59 in1002.0 mb - 0.09 in2.3 mm 0.15 in3.8 mm
04:45 AM 55.9°F13.3°C 54.8°F12.7°C 96% 1.2 mph WNW1.9 kmh WNW 1.2 mph1.9 kmh 29.59 in1002.0 mb - 0.12 in3.0 mm 0.15 in3.8 mm
04:40 AM 55.9°F13.3°C 54.8°F12.7°C 96% Calm Calm 3.5 mph5.6 kmh 29.59 in1002.0 mb - 0.11 in2.8 mm 0.14 in3.6 mm
04:35 AM 55.9°F13.3°C 54.8°F12.7°C 96% Calm Calm 2.3 mph3.7 kmh 29.59 in1002.0 mb - 0.10 in2.5 mm 0.13 in3.3 mm
04:30 AM 55.9°F13.3°C 54.8°F12.7°C 96% Calm Calm 2.3 mph3.7 kmh 29.59 in1002.0 mb - 0.09 in2.3 mm 0.12 in3.0 mm
04:25 AM 55.9°F13.3°C 54.8°F12.7°C 96% Calm Calm -- 29.59 in1002.0 mb - 0.08 in2.0 mm 0.11 in2.8 mm
04:20 AM 55.9°F13.3°C 54.8°F12.7°C 96% 2.3 mph WSW3.7 kmh WSW -- 29.59 in1002.0 mb - 0.08 in2.0 mm 0.11 in2.8 mm
04:15 AM 56.1°F13.4°C 55.0°F12.8°C 96% 2.3 mph SW3.7 kmh SW 2.3 mph3.7 kmh 29.59 in1002.0 mb - 0.07 in1.8 mm 0.10 in2.5 mm
04:10 AM 56.1°F13.4°C 55.0°F12.8°C 96% 1.2 mph SW1.9 kmh SW 4.6 mph7.4 kmh 29.59 in1002.0 mb - 0.06 in1.5 mm 0.09 in2.3 mm
04:00 AM 56.3°F13.5°C 54.9°F12.7°C 95% Calm Calm 3.5 mph5.6 kmh 29.59 in1002.0 mb - 0.04 in1.0 mm 0.07 in1.8 mm
03:55 AM 56.5°F13.6°C 55.1°F12.8°C 95% Calm Calm 2.3 mph3.7 kmh 29.59 in1002.0 mb - 0.04 in1.0 mm 0.07 in1.8 mm
03:50 AM 56.5°F13.6°C 55.1°F12.8°C 95% Calm Calm 2.3 mph3.7 kmh 29.59 in1002.0 mb - 0.04 in1.0 mm 0.06 in1.5 mm
03:45 AM 56.6°F13.7°C 55.2°F12.9°C 95% Calm Calm 2.3 mph3.7 kmh 29.59 in1002.0 mb - 0.01 in0.3 mm 0.03 in0.8 mm
03:40 AM 56.7°F13.7°C 55.2°F12.9°C 95% Calm Calm -- 29.59 in1002.0 mb - 0.01 in0.3 mm 0.03 in0.8 mm
03:35 AM 56.7°F13.7°C 55.2°F12.9°C 95% Calm Calm -- 29.59 in1002.0 mb - 0.01 in0.3 mm 0.03 in0.8 mm
03:30 AM 56.7°F13.7°C 55.2°F12.9°C 95% 2.3 mph E3.7 kmh E 2.3 mph3.7 kmh 29.59 in1002.0 mb - 0.01 in0.3 mm 0.03 in0.8 mm
03:25 AM 56.7°F13.7°C 55.2°F12.9°C 95% 2.3 mph E3.7 kmh E -- 29.59 in1002.0 mb - 0.01 in0.3 mm 0.03 in0.8 mm
03:20 AM 56.7°F13.7°C 55.2°F12.9°C 95% 1.2 mph N1.9 kmh N 2.3 mph3.7 kmh 29.59 in1002.0 mb - 0.01 in0.3 mm 0.03 in0.8 mm
03:15 AM 56.7°F13.7°C 55.2°F12.9°C 95% 1.2 mph E1.9 kmh E 2.3 mph3.7 kmh 29.59 in1002.0 mb - 0.01 in0.3 mm 0.03 in0.8 mm
03:10 AM 56.7°F13.7°C 55.2°F12.9°C 95% 2.3 mph ESE3.7 kmh ESE -- 29.59 in1002.0 mb - 0.01 in0.3 mm 0.03 in0.8 mm
03:00 AM 56.8°F13.8°C 55.4°F13.0°C 95% 2.3 mph ENE3.7 kmh ENE 2.3 mph3.7 kmh 29.59 in1002.0 mb - 0.01 in0.3 mm 0.03 in0.8 mm
02:55 AM 56.8°F13.8°C 55.4°F13.0°C 95% 2.3 mph E3.7 kmh E 2.3 mph3.7 kmh 29.59 in1002.0 mb - 0.01 in0.3 mm 0.03 in0.8 mm
02:50 AM 56.8°F13.8°C 55.4°F13.0°C 95% Calm Calm 4.6 mph7.4 kmh 29.59 in1002.0 mb - 0.01 in0.3 mm 0.03 in0.8 mm
02:45 AM 56.8°F13.8°C 55.4°F13.0°C 95% Calm Calm 2.3 mph3.7 kmh 29.59 in1002.0 mb - 0.00 in0.0 mm 0.02 in0.5 mm
02:40 AM 56.7°F13.7°C 55.3°F12.9°C 95% 1.2 mph ENE1.9 kmh ENE -- 29.59 in1002.0 mb - 0.00 in0.0 mm 0.02 in0.5 mm
02:35 AM 56.8°F13.8°C 55.4°F13.0°C 95% 1.2 mph E1.9 kmh E -- 29.59 in1002.0 mb - 0.00 in0.0 mm 0.02 in0.5 mm
02:30 AM 56.8°F13.8°C 55.4°F13.0°C 95% Calm Calm 2.3 mph3.7 kmh 29.59 in1002.0 mb - 0.00 in0.0 mm 0.02 in0.5 mm
02:25 AM 56.8°F13.8°C 55.4°F13.0°C 95% Calm Calm 2.3 mph3.7 kmh 29.59 in1002.0 mb - 0.00 in0.0 mm 0.02 in0.5 mm
02:20 AM 56.8°F13.8°C 55.4°F13.0°C 95% 2.3 mph NW3.7 kmh NW -- 29.59 in1002.0 mb - 0.00 in0.0 mm 0.02 in0.5 mm
02:15 AM 56.7°F13.7°C 55.3°F12.9°C 95% 2.3 mph N3.7 kmh N -- 29.59 in1002.0 mb - 0.00 in0.0 mm 0.02 in0.5 mm
02:10 AM 56.7°F13.7°C 55.2°F12.9°C 95% 2.3 mph NE3.7 kmh NE 4.6 mph7.4 kmh 29.59 in1002.0 mb - 0.00 in0.0 mm 0.02 in0.5 mm
02:00 AM 56.7°F13.7°C 55.2°F12.9°C 95% 2.3 mph E3.7 kmh E 2.3 mph3.7 kmh 29.59 in1002.0 mb - 0.00 in0.0 mm 0.02 in0.5 mm
01:55 AM 56.7°F13.7°C 55.2°F12.9°C 95% 2.3 mph ESE3.7 kmh ESE 2.3 mph3.7 kmh 29.59 in1002.0 mb - 0.00 in0.0 mm 0.02 in0.5 mm
01:50 AM 56.7°F13.7°C 55.2°F12.9°C 95% 2.3 mph NE3.7 kmh NE 5.8 mph9.3 kmh 29.59 in1002.0 mb - 0.00 in0.0 mm 0.02 in0.5 mm
01:45 AM 56.7°F13.7°C 55.2°F12.9°C 95% 2.3 mph NNE3.7 kmh NNE 3.5 mph5.6 kmh 29.59 in1002.0 mb - 0.00 in0.0 mm 0.02 in0.5 mm
01:40 AM 56.7°F13.7°C 55.2°F12.9°C 95% 2.3 mph ENE3.7 kmh ENE 4.6 mph7.4 kmh 29.60 in1002.4 mb - 0.00 in0.0 mm 0.02 in0.5 mm
01:35 AM 56.7°F13.7°C 55.2°F12.9°C 95% 2.3 mph NE3.7 kmh NE 2.3 mph3.7 kmh 29.60 in1002.4 mb - 0.00 in0.0 mm 0.02 in0.5 mm
01:30 AM 56.7°F13.7°C 55.2°F12.9°C 95% 1.2 mph NNE1.9 kmh NNE 3.5 mph5.6 kmh 29.60 in1002.4 mb - 0.00 in0.0 mm 0.02 in0.5 mm
01:25 AM 56.5°F13.6°C 55.1°F12.8°C 95% 1.2 mph E1.9 kmh E 4.6 mph7.4 kmh 29.60 in1002.4 mb - 0.00 in0.0 mm 0.02 in0.5 mm
01:20 AM 56.5°F13.6°C 55.1°F12.8°C 95% 2.3 mph E3.7 kmh E 4.6 mph7.4 kmh 29.59 in1002.0 mb - 0.00 in0.0 mm 0.02 in0.5 mm
01:15 AM 56.5°F13.6°C 55.1°F12.8°C 95% 2.3 mph ESE3.7 kmh ESE 2.3 mph3.7 kmh 29.59 in1002.0 mb - 0.00 in0.0 mm 0.02 in0.5 mm
01:10 AM 56.5°F13.6°C 55.1°F12.8°C 95% 2.3 mph SE3.7 kmh SE 3.5 mph5.6 kmh 29.59 in1002.0 mb - 0.00 in0.0 mm 0.02 in0.5 mm
01:00 AM 56.6°F13.7°C 55.2°F12.9°C 95% 2.3 mph ESE3.7 kmh ESE 3.5 mph5.6 kmh 29.59 in1002.0 mb - 0.00 in0.0 mm 0.02 in0.5 mm
12:55 AM 56.7°F13.7°C 55.2°F12.9°C 95% 2.3 mph ENE3.7 kmh ENE 2.3 mph3.7 kmh 29.59 in1002.0 mb - 0.00 in0.0 mm 0.02 in0.5 mm
12:50 AM 56.7°F13.7°C 55.2°F12.9°C 95% Calm Calm 3.5 mph5.6 kmh 29.59 in1002.0 mb - 0.00 in0.0 mm 0.02 in0.5 mm
12:45 AM 56.7°F13.7°C 55.3°F12.9°C 95% Calm Calm 3.5 mph5.6 kmh 29.59 in1002.0 mb - 0.00 in0.0 mm 0.02 in0.5 mm
12:40 AM 56.8°F13.8°C 55.4°F13.0°C 95% 3.5 mph NE5.6 kmh NE 2.3 mph3.7 kmh 29.60 in1002.4 mb - 0.00 in0.0 mm 0.02 in0.5 mm
12:35 AM 56.8°F13.8°C 55.4°F13.0°C 95% 3.5 mph NE5.6 kmh NE 2.3 mph3.7 kmh 29.60 in1002.4 mb - 0.00 in0.0 mm 0.02 in0.5 mm
12:30 AM 56.8°F13.8°C 55.4°F13.0°C 95% 3.5 mph NE5.6 kmh NE 2.3 mph3.7 kmh 29.60 in1002.4 mb - 0.00 in0.0 mm 0.02 in0.5 mm
12:25 AM 56.8°F13.8°C 55.4°F13.0°C 95% 3.5 mph E5.6 kmh E 4.6 mph7.4 kmh 29.60 in1002.4 mb - 0.00 in0.0 mm 0.02 in0.5 mm
12:20 AM 56.8°F13.8°C 55.4°F13.0°C 95% 2.3 mph ENE3.7 kmh ENE 4.6 mph7.4 kmh 29.60 in1002.4 mb - 0.00 in0.0 mm 0.02 in0.5 mm
12:15 AM 56.8°F13.8°C 55.1°F12.8°C 94% 2.3 mph ENE3.7 kmh ENE 5.8 mph9.3 kmh 29.60 in1002.4 mb - 0.00 in0.0 mm 0.02 in0.5 mm
12:10 AM 56.8°F13.8°C 55.1°F12.8°C 94% 2.3 mph ENE3.7 kmh ENE 2.3 mph3.7 kmh 29.60 in1002.4 mb - 0.00 in0.0 mm 0.02 in0.5 mm
12:00 AM 57.0°F13.9°C 55.3°F12.9°C 94% 2.3 mph E3.7 kmh E 2.3 mph3.7 kmh 29.60 in1002.4 mb - 0.00 in0.0 mm 0.02 in0.5 mm